Time;durP1;ratioP1;P1;durP2;ratioP2;P2;SDS_P1;SDS_P2;PMS_P1;PMS_P2;Temp;Humidity;BMP_temperature;BMP_pressure;BME280_temperature;BME280_humidity;BME280_pressure;Samples;Min_cycle;Max_cycle;Signal;HPM_P1;HPM_P2
2023/12/12 00:01:34;;;;;;;4.03;1.70;;;21.20;54.10;;;;;;4979942;28;20435;-66
2023/12/12 00:04:00;;;;;;;3.40;2.15;;;21.20;54.20;;;;;;4981522;28;20474;-66
2023/12/12 00:06:26;;;;;;;2.65;1.83;;;21.20;54.20;;;;;;4982281;28;20109;-67
2023/12/12 00:08:51;;;;;;;3.13;1.83;;;21.20;54.20;;;;;;4982868;28;20077;-67
2023/12/12 00:11:17;;;;;;;2.78;1.70;;;21.20;54.20;;;;;;4982993;28;20038;-67
2023/12/12 00:13:43;;;;;;;2.55;1.80;;;21.20;54.20;;;;;;4979932;28;20042;-66
2023/12/12 00:16:09;;;;;;;3.55;1.90;;;21.20;54.20;;;;;;4980678;28;20606;-66
2023/12/12 00:18:35;;;;;;;2.88;1.90;;;21.10;54.20;;;;;;4981245;28;20479;-67
2023/12/12 00:21:05;;;;;;;2.80;1.70;;;21.10;54.20;;;;;;4996572;28;20037;-67
2023/12/12 00:23:30;;;;;;;;;;;21.20;54.20;;;;;;4979752;28;20030;-67
2023/12/12 00:25:56;;;;;;;2.38;1.60;;;21.10;54.20;;;;;;4981211;28;19906;-66
2023/12/12 00:28:21;;;;;;;2.25;1.60;;;21.10;54.20;;;;;;4994424;28;20114;-67
2023/12/12 00:30:47;;;;;;;2.95;1.88;;;21.10;54.20;;;;;;4994532;28;20119;-67
2023/12/12 00:33:13;;;;;;;2.90;1.90;;;21.10;54.20;;;;;;4979031;28;20494;-66
2023/12/12 00:35:38;;;;;;;2.70;1.77;;;21.10;54.20;;;;;;4980180;28;20549;-67
2023/12/12 00:38:04;;;;;;;2.33;1.63;;;21.10;54.20;;;;;;4982162;28;20056;-66
2023/12/12 00:40:31;;;;;;;2.33;1.63;;;21.10;54.20;;;;;;4982298;28;20486;-68
2023/12/12 00:42:57;;;;;;;2.35;1.58;;;21.10;54.30;;;;;;4981341;28;20034;-67
2023/12/12 00:45:22;;;;;;;3.88;1.90;;;21.10;54.20;;;;;;4981501;28;20449;-66
2023/12/12 00:47:48;;;;;;;2.55;1.70;;;21.10;54.20;;;;;;4994765;28;20062;-67
2023/12/12 00:50:14;;;;;;;2.40;1.90;;;21.00;54.20;;;;;;4979091;28;20553;-66
2023/12/12 00:52:41;;;;;;;2.40;1.70;;;21.10;54.20;;;;;;4978795;28;20031;-66
2023/12/12 00:55:07;;;;;;;3.25;1.83;;;21.00;54.20;;;;;;4978572;28;20313;-66
2023/12/12 00:57:32;;;;;;;2.15;1.50;;;21.10;54.20;;;;;;4979846;28;20061;-66
2023/12/12 00:59:58;;;;;;;2.42;1.67;;;21.00;54.20;;;;;;4979801;28;20455;-67
2023/12/12 01:02:25;;;;;;;3.20;1.88;;;21.00;54.20;;;;;;4980759;28;20068;-68
2023/12/12 01:04:50;;;;;;;3.38;2.00;;;21.00;54.20;;;;;;4980769;28;20108;-68
2023/12/12 01:07:16;;;;;;;2.95;1.80;;;21.00;54.20;;;;;;4978848;28;20169;-67
2023/12/12 01:09:41;;;;;;;2.50;1.80;;;21.00;54.20;;;;;;4979936;28;20030;-68
2023/12/12 01:12:07;;;;;;;2.88;1.75;;;21.00;54.20;;;;;;4980747;28;20026;-69
2023/12/12 01:14:33;;;;;;;2.80;1.90;;;21.00;54.20;;;;;;4980982;28;20127;-68
2023/12/12 01:16:58;;;;;;;2.50;1.70;;;21.00;54.20;;;;;;4978713;28;20035;-69
2023/12/12 01:19:24;;;;;;;2.75;1.70;;;21.00;54.20;;;;;;4978413;28;20027;-68
2023/12/12 01:21:50;;;;;;;3.10;1.92;;;21.00;54.20;;;;;;4981284;28;20056;-69
2023/12/12 01:24:16;;;;;;;2.47;1.77;;;21.00;54.20;;;;;;4980592;28;20842;-69
2023/12/12 01:26:41;;;;;;;2.70;1.73;;;21.00;54.20;;;;;;4978662;28;20027;-69
2023/12/12 01:29:07;;;;;;;2.40;1.70;;;20.90;54.10;;;;;;4978520;28;20500;-69
2023/12/12 01:31:32;;;;;;;2.50;1.80;;;20.90;54.10;;;;;;4992492;28;20034;-69
2023/12/12 01:33:58;;;;;;;2.45;1.77;;;21.00;54.20;;;;;;4979359;28;20080;-69
2023/12/12 01:36:24;;;;;;;2.80;1.80;;;20.90;54.10;;;;;;4979183;28;20023;-69
2023/12/12 01:38:49;;;;;;;2.45;1.63;;;20.90;54.10;;;;;;4979308;28;20029;-69
2023/12/12 01:41:15;;;;;;;2.83;1.77;;;20.90;54.20;;;;;;4978327;28;20719;-69
2023/12/12 01:43:40;;;;;;;2.72;1.80;;;20.90;54.10;;;;;;4996051;28;20019;-69
2023/12/12 01:46:08;;;;;;;3.20;1.65;;;20.90;54.10;;;;;;4991677;28;20027;-69
2023/12/12 01:48:35;;;;;;;2.35;1.65;;;20.90;54.20;;;;;;4993125;28;20027;-68
2023/12/12 01:51:01;;;;;;;2.60;1.70;;;20.90;54.20;;;;;;4977244;28;20030;-69
2023/12/12 01:53:40;;;;;;;2.40;1.60;;;20.90;54.20;;;;;;4977200;28;20030;-69
2023/12/12 01:56:07;;;;;;;2.35;1.65;;;20.90;54.20;;;;;;4978884;28;20419;-68
2023/12/12 01:58:34;;;;;;;2.40;1.50;;;20.90;54.20;;;;;;4992400;28;20415;-68
2023/12/12 02:01:00;;;;;;;2.38;1.58;;;20.90;54.20;;;;;;4981002;28;20428;-68
2023/12/12 02:03:27;;;;;;;2.22;1.63;;;20.90;54.20;;;;;;4980092;28;20044;-68
2023/12/12 02:05:58;;;;;;;2.40;1.58;;;20.90;54.20;;;;;;4979760;28;20493;-69
2023/12/12 02:08:25;;;;;;;2.40;1.75;;;20.90;54.20;;;;;;4982423;28;20475;-69
2023/12/12 02:10:51;;;;;;;3.13;1.67;;;20.90;54.20;;;;;;4984077;28;20055;-67
2023/12/12 02:13:17;;;;;;;2.53;1.50;;;20.80;54.20;;;;;;4983857;28;20041;-67
2023/12/12 02:15:43;;;;;;;2.65;1.77;;;20.80;54.20;;;;;;4985018;28;20096;-67
2023/12/12 02:18:08;;;;;;;3.10;1.80;;;20.90;54.20;;;;;;4983377;28;20486;-67
2023/12/12 02:20:34;;;;;;;2.05;1.52;;;20.80;54.20;;;;;;4984402;28;20030;-67
2023/12/12 02:22:59;;;;;;;2.60;1.75;;;20.80;54.20;;;;;;4981198;28;20375;-67
2023/12/12 02:25:25;;;;;;;2.55;1.70;;;20.80;54.20;;;;;;4984084;28;20030;-68
2023/12/12 02:27:51;;;;;;;2.38;1.58;;;20.80;54.20;;;;;;4979922;28;20097;-67
2023/12/12 02:30:18;;;;;;;3.70;1.80;;;20.80;54.20;;;;;;4998305;28;20500;-67
2023/12/12 02:32:43;;;;;;;2.40;1.70;;;20.80;54.20;;;;;;4983491;28;20118;-67
2023/12/12 02:35:09;;;;;;;2.65;1.80;;;20.70;54.60;;;;;;4983640;28;20160;-68
2023/12/12 02:37:34;;;;;;;2.42;1.65;;;20.80;54.20;;;;;;4981300;28;20061;-67
2023/12/12 02:40:00;;;;;;;2.38;1.65;;;20.80;54.20;;;;;;4982970;28;20443;-67
2023/12/12 02:42:26;;;;;;;2.03;1.60;;;20.80;54.20;;;;;;4980730;28;20019;-67
2023/12/12 02:44:51;;;;;;;2.25;1.50;;;20.80;54.20;;;;;;4982425;28;20034;-68
2023/12/12 02:47:17;;;;;;;2.13;1.45;;;20.80;54.20;;;;;;4980884;28;20399;-67
2023/12/12 02:49:43;;;;;;;2.28;1.70;;;20.70;54.10;;;;;;4979529;28;20030;-68
2023/12/12 02:52:08;;;;;;;2.40;1.60;;;20.80;54.20;;;;;;4981156;28;20089;-67
2023/12/12 02:54:34;;;;;;;1.90;1.50;;;20.70;54.10;;;;;;4982694;28;20038;-67
2023/12/12 02:57:00;;;;;;;1.95;1.50;;;20.70;54.10;;;;;;4982237;28;20027;-67
2023/12/12 02:59:26;;;;;;;1.85;1.42;;;20.70;54.10;;;;;;4980489;28;20118;-68
2023/12/12 03:01:52;;;;;;;1.92;1.50;;;20.70;54.10;;;;;;4983323;28;20030;-68
2023/12/12 03:04:17;;;;;;;2.17;1.50;;;20.70;54.20;;;;;;4982700;28;20018;-68
2023/12/12 03:06:43;;;;;;;2.13;1.60;;;20.70;54.10;;;;;;4981430;28;20110;-67
2023/12/12 03:09:08;;;;;;;2.20;1.60;;;20.70;54.10;;;;;;4981880;28;20026;-67
2023/12/12 03:11:34;;;;;;;2.30;1.60;;;20.70;54.20;;;;;;4980091;28;20069;-67
2023/12/12 03:14:00;;;;;;;2.08;1.50;;;20.70;54.20;;;;;;4979974;28;20512;-68
2023/12/12 03:16:26;;;;;;;1.65;1.42;;;20.70;54.20;;;;;;4981854;28;20117;-68
2023/12/12 03:18:52;;;;;;;2.50;1.60;;;20.70;54.10;;;;;;4979710;28;20121;-68
2023/12/12 03:21:18;;;;;;;2.00;1.48;;;20.70;54.20;;;;;;4981693;28;20080;-68
2023/12/12 03:23:46;;;;;;;2.10;1.70;;;20.70;54.10;;;;;;4979982;28;20018;-68
2023/12/12 03:26:12;;;;;;;2.58;1.60;;;20.70;54.20;;;;;;4983301;28;20110;-68
2023/12/12 03:28:37;;;;;;;2.03;1.33;;;20.70;54.20;;;;;;4984523;28;20110;-67
2023/12/12 03:31:04;;;;;;;1.88;1.38;;;20.70;54.20;;;;;;4981692;28;20069;-66
2023/12/12 03:33:29;;;;;;;2.20;1.48;;;20.60;54.10;;;;;;4981677;28;20085;-67
2023/12/12 03:35:55;;;;;;;2.13;1.40;;;20.60;54.10;;;;;;4979303;28;20038;-67
2023/12/12 03:38:20;;;;;;;2.15;1.48;;;20.70;54.20;;;;;;4980886;28;20034;-66
2023/12/12 03:40:46;;;;;;;2.08;1.30;;;20.60;54.10;;;;;;4981986;28;20034;-67
2023/12/12 03:43:12;;;;;;;2.15;1.50;;;20.60;54.10;;;;;;4981438;28;20549;-67
2023/12/12 03:45:38;;;;;;;1.92;1.45;;;20.60;54.10;;;;;;4981671;28;20035;-66
2023/12/12 03:48:03;;;;;;;2.42;1.75;;;20.60;54.30;;;;;;4982821;28;20026;-66
2023/12/12 03:50:29;;;;;;;2.00;1.40;;;20.60;54.10;;;;;;4981420;28;20026;-67
2023/12/12 03:52:55;;;;;;;2.22;1.40;;;20.60;54.10;;;;;;4979888;28;20034;-67
2023/12/12 03:55:21;;;;;;;2.17;1.52;;;20.60;54.10;;;;;;4982684;28;20031;-67
2023/12/12 03:57:47;;;;;;;2.47;1.48;;;20.60;54.10;;;;;;4982106;28;20080;-66
2023/12/12 04:00:13;;;;;;;1.92;1.40;;;20.60;54.10;;;;;;4996965;28;20030;-66
2023/12/12 04:02:40;;;;;;;2.00;1.35;;;20.60;54.20;;;;;;4981718;28;20364;-67
2023/12/12 04:05:09;;;;;;;1.70;1.40;;;20.60;54.20;;;;;;4979603;28;20497;-67
2023/12/12 04:07:37;;;;;;;1.90;1.30;;;20.60;54.10;;;;;;4981169;28;20441;-67
2023/12/12 04:10:04;;;;;;;1.98;1.38;;;20.60;54.20;;;;;;4981864;28;20022;-67
2023/12/12 04:12:29;;;;;;;1.42;1.27;;;20.60;54.40;;;;;;4979407;28;20037;-68
2023/12/12 04:14:55;;;;;;;1.85;1.58;;;20.50;54.10;;;;;;4979840;28;20030;-67
2023/12/12 04:17:20;;;;;;;1.75;1.27;;;20.60;54.20;;;;;;4982310;28;20148;-68
2023/12/12 04:19:46;;;;;;;2.55;1.45;;;20.50;54.20;;;;;;4982381;28;20037;-67
2023/12/12 04:22:11;;;;;;;1.77;1.33;;;20.50;54.20;;;;;;4994621;28;20031;-66
2023/12/12 04:24:37;;;;;;;1.90;1.30;;;20.50;54.20;;;;;;4979052;28;20045;-67
2023/12/12 04:27:03;;;;;;;1.60;1.33;;;20.50;54.20;;;;;;4979850;28;20027;-68
2023/12/12 04:29:28;;;;;;;2.03;1.38;;;20.50;54.20;;;;;;4978982;28;20042;-67
2023/12/12 04:31:54;;;;;;;1.95;1.38;;;20.50;54.20;;;;;;4993637;28;20027;-68
2023/12/12 04:34:20;;;;;;;1.63;1.13;;;20.50;54.20;;;;;;4980480;28;20691;-68
2023/12/12 04:36:45;;;;;;;2.33;1.52;;;20.50;54.20;;;;;;4981284;28;20030;-68
2023/12/12 04:39:16;;;;;;;2.00;1.45;;;20.50;54.20;;;;;;4980699;28;20039;-67
2023/12/12 04:41:42;;;;;;;1.90;1.50;;;20.50;54.20;;;;;;4981866;28;20026;-66
2023/12/12 04:44:08;;;;;;;1.45;1.25;;;20.50;54.20;;;;;;4978473;28;20037;-67
2023/12/12 04:46:34;;;;;;;2.05;1.42;;;20.50;54.20;;;;;;4980970;28;20537;-67
2023/12/12 04:49:00;;;;;;;1.67;1.30;;;20.50;54.20;;;;;;4979763;28;20023;-67
2023/12/12 04:51:26;;;;;;;1.50;1.20;;;20.40;54.10;;;;;;4978902;28;20467;-65
2023/12/12 04:53:52;;;;;;;1.77;1.13;;;20.40;54.20;;;;;;4980683;28;20034;-67
2023/12/12 04:56:17;;;;;;;1.73;1.35;;;20.40;54.30;;;;;;4979012;28;20037;-66
2023/12/12 04:58:43;;;;;;;1.73;1.30;;;20.40;54.20;;;;;;4981876;28;20399;-65
2023/12/12 05:01:09;;;;;;;1.80;1.30;;;20.40;54.30;;;;;;4978401;28;20472;-67
2023/12/12 05:03:34;;;;;;;1.75;1.25;;;20.40;54.30;;;;;;4980946;28;20106;-66
2023/12/12 05:06:00;;;;;;;1.80;1.30;;;20.40;54.40;;;;;;4980492;28;20018;-67
2023/12/12 05:08:26;;;;;;;1.52;1.20;;;20.40;54.40;;;;;;4977596;28;20454;-66
2023/12/12 05:10:52;;;;;;;1.38;1.20;;;20.40;54.30;;;;;;4981174;28;20050;-67
2023/12/12 05:13:18;;;;;;;1.77;1.25;;;20.40;54.30;;;;;;4979841;28;20030;-66
2023/12/12 05:15:44;;;;;;;1.50;1.10;;;20.40;54.30;;;;;;4979668;28;20183;-66
2023/12/12 05:18:10;;;;;;;1.48;1.20;;;20.40;54.30;;;;;;4980935;28;20073;-67
2023/12/12 05:20:36;;;;;;;1.95;1.30;;;20.40;54.30;;;;;;4993107;28;20121;-66
2023/12/12 05:23:01;;;;;;;1.92;1.10;;;20.40;54.30;;;;;;4978962;28;20031;-66
2023/12/12 05:25:27;;;;;;;1.85;1.30;;;20.40;54.30;;;;;;4993891;28;20026;-66
2023/12/12 05:27:53;;;;;;;1.67;1.20;;;20.40;54.30;;;;;;4981079;28;20026;-66
2023/12/12 05:30:19;;;;;;;1.60;1.17;;;20.40;54.30;;;;;;4996097;28;20478;-66
2023/12/12 05:32:45;;;;;;;1.50;1.15;;;20.40;54.30;;;;;;4979220;28;20032;-66
2023/12/12 05:35:10;;;;;;;1.95;1.33;;;20.40;54.30;;;;;;4979019;28;20058;-65
2023/12/12 05:37:36;;;;;;;1.92;1.38;;;20.40;54.30;;;;;;4979105;28;20030;-65
2023/12/12 05:40:04;;;;;;;1.73;1.23;;;20.40;54.30;;;;;;4979260;28;20093;-66
2023/12/12 05:42:30;;;;;;;1.48;1.10;;;20.40;54.30;;;;;;4984129;28;20019;-68
2023/12/12 05:44:56;;;;;;;1.48;1.17;;;20.40;54.30;;;;;;4983880;28;20023;-68
2023/12/12 05:47:21;;;;;;;1.50;1.13;;;20.40;54.40;;;;;;4982987;28;20026;-68
2023/12/12 05:49:47;;;;;;;1.80;1.30;;;20.40;54.30;;;;;;4984296;28;20065;-69
2023/12/12 05:52:14;;;;;;;1.30;1.00;;;20.30;54.30;;;;;;4982914;28;20056;-66
2023/12/12 05:54:40;;;;;;;1.63;1.25;;;20.40;54.40;;;;;;4981391;28;20030;-67
2023/12/12 05:57:05;;;;;;;1.77;1.10;;;20.40;54.40;;;;;;4984025;28;20477;-66
2023/12/12 05:59:31;;;;;;;1.60;1.30;;;20.30;54.30;;;;;;4982892;28;20019;-67
2023/12/12 06:01:57;;;;;;;1.50;1.10;;;20.30;54.40;;;;;;4980749;28;20046;-66
2023/12/12 06:04:23;;;;;;;1.75;1.17;;;20.30;54.40;;;;;;4981720;28;20073;-66
2023/12/12 06:06:48;;;;;;;2.15;1.27;;;20.30;54.40;;;;;;4983750;28;20053;-66
2023/12/12 06:09:14;;;;;;;1.75;1.20;;;20.30;54.40;;;;;;4983789;28;20109;-66
2023/12/12 06:11:41;;;;;;;1.40;1.10;;;20.30;54.40;;;;;;4998402;28;20031;-66
2023/12/12 06:14:07;;;;;;;2.03;1.23;;;20.30;54.40;;;;;;4982757;28;20182;-66
2023/12/12 06:16:33;;;;;;;1.73;1.20;;;20.30;54.40;;;;;;4979875;28;20121;-67
2023/12/12 06:18:59;;;;;;;1.70;1.30;;;20.30;54.50;;;;;;4983046;28;20092;-66
2023/12/12 06:21:25;;;;;;;1.70;1.20;;;20.30;54.70;;;;;;4982487;28;20026;-67
2023/12/12 06:23:50;;;;;;;1.50;1.23;;;20.30;54.90;;;;;;4983066;28;20041;-66
2023/12/12 06:26:16;;;;;;;1.50;1.20;;;20.30;54.80;;;;;;4982545;28;20022;-68
2023/12/12 06:28:42;;;;;;;1.90;1.30;;;20.30;54.80;;;;;;4983275;28;20471;-66
2023/12/12 06:31:08;;;;;;;1.85;1.30;;;20.30;54.80;;;;;;4999365;28;20054;-66
2023/12/12 06:33:34;;;;;;;1.50;1.20;;;20.30;54.80;;;;;;4982587;28;20046;-66
2023/12/12 06:35:59;;;;;;;1.45;1.10;;;20.30;54.70;;;;;;4982571;28;20033;-67
2023/12/12 06:38:25;;;;;;;2.05;1.13;;;20.30;54.70;;;;;;4983316;28;20042;-67
2023/12/12 06:40:51;;;;;;;1.80;1.20;;;20.30;54.70;;;;;;4983500;28;20035;-67
2023/12/12 06:43:17;;;;;;;1.40;1.02;;;20.30;54.70;;;;;;4982794;28;20041;-66
2023/12/12 06:45:43;;;;;;;2.00;1.40;;;20.30;54.70;;;;;;4981174;28;20030;-66
2023/12/12 06:48:10;;;;;;;2.72;1.38;;;20.30;54.70;;;;;;4982843;28;20032;-66
2023/12/12 06:50:36;;;;;;;1.77;1.20;;;20.30;54.60;;;;;;4983143;28;20045;-68
2023/12/12 06:53:01;;;;;;;1.70;1.10;;;20.30;54.60;;;;;;4982934;28;20035;-68
2023/12/12 06:55:27;;;;;;;1.60;1.20;;;20.30;54.60;;;;;;4982626;28;20076;-68
2023/12/12 06:57:53;;;;;;;1.75;1.10;;;20.30;54.70;;;;;;4982497;28;20066;-68
2023/12/12 07:00:19;;;;;;;2.45;1.23;;;20.30;54.60;;;;;;4982908;28;20035;-67
2023/12/12 07:02:45;;;;;;;3.47;1.67;;;20.20;54.60;;;;;;4980845;28;20018;-69
2023/12/12 07:05:11;;;;;;;2.70;1.40;;;20.20;54.60;;;;;;4982156;28;20502;-69
2023/12/12 07:07:36;;;;;;;2.47;1.30;;;20.20;54.60;;;;;;4997710;28;20117;-69
2023/12/12 07:10:06;;;;;;;1.75;1.23;;;20.30;54.60;;;;;;4981180;28;20037;-69
2023/12/12 07:12:32;;;;;;;2.45;1.23;;;20.30;54.60;;;;;;4984444;28;20030;-66
2023/12/12 07:14:57;;;;;;;4.53;1.42;;;20.20;54.60;;;;;;4979648;28;20482;-66
2023/12/12 07:17:23;;;;;;;1.95;1.20;;;20.30;54.70;;;;;;4978735;28;20040;-66
2023/12/12 07:19:48;;;;;;;3.13;1.50;;;20.20;54.60;;;;;;4981746;28;20097;-66
2023/12/12 07:22:15;;;;;;;2.83;1.35;;;20.20;54.60;;;;;;4980543;28;20034;-66
2023/12/12 07:24:41;;;;;;;2.35;1.40;;;20.20;54.60;;;;;;4981742;28;20022;-66
2023/12/12 07:27:06;;;;;;;2.17;1.27;;;20.20;54.60;;;;;;4982599;28;20029;-66
2023/12/12 07:29:33;;;;;;;2.42;1.30;;;20.20;54.60;;;;;;4981821;28;20490;-67
2023/12/12 07:31:59;;;;;;;2.40;1.40;;;20.30;54.70;;;;;;4979901;28;20023;-66
2023/12/12 07:34:24;;;;;;;2.83;1.48;;;20.20;54.60;;;;;;4981940;28;20030;-66
2023/12/12 07:36:50;;;;;;;3.20;1.38;;;20.20;54.60;;;;;;4980156;28;20120;-66
2023/12/12 07:39:15;;;;;;;2.97;1.50;;;20.20;54.60;;;;;;4982196;28;20034;-66
2023/12/12 07:41:41;;;;;;;2.25;1.30;;;20.20;54.60;;;;;;4981260;28;20356;-66
2023/12/12 07:44:07;;;;;;;2.92;1.60;;;20.20;54.70;;;;;;4983863;28;20029;-67
2023/12/12 07:46:39;;;;;;;3.53;1.40;;;20.20;54.60;;;;;;4983260;28;20027;-66
2023/12/12 07:49:08;;;;;;;3.97;1.60;;;20.20;54.60;;;;;;4981988;28;20113;-66
2023/12/12 07:51:34;;;;;;;;;;;20.20;54.60;;;;;;4980847;28;20545;-66
2023/12/12 07:54:01;;;;;;;2.08;1.30;;;20.20;54.70;;;;;;4979668;28;19906;-67
2023/12/12 07:56:27;;;;;;;3.13;1.52;;;20.20;54.60;;;;;;4981735;28;20038;-66
2023/12/12 07:58:52;;;;;;;3.13;1.40;;;20.20;54.70;;;;;;4978702;28;20565;-66
2023/12/12 08:01:18;;;;;;;3.35;1.70;;;20.20;54.60;;;;;;4981489;28;20057;-67
2023/12/12 08:03:44;;;;;;;3.17;1.50;;;20.20;54.60;;;;;;4978210;28;20027;-66
2023/12/12 08:06:10;;;;;;;2.75;1.40;;;20.20;54.60;;;;;;4980672;28;20022;-66
2023/12/12 08:08:36;;;;;;;2.47;1.42;;;20.20;54.70;;;;;;4979412;28;20030;-66
2023/12/12 08:11:02;;;;;;;2.45;1.40;;;20.20;54.70;;;;;;4980860;28;20030;-67
2023/12/12 08:13:27;;;;;;;2.55;1.40;;;20.20;54.70;;;;;;4995109;28;20034;-67
2023/12/12 08:15:53;;;;;;;2.35;1.40;;;20.20;54.70;;;;;;4980579;28;20399;-67
2023/12/12 08:18:19;;;;;;;3.05;1.60;;;20.20;54.70;;;;;;4980125;28;20039;-67
2023/12/12 08:20:44;;;;;;;2.35;1.40;;;20.20;54.70;;;;;;4979395;28;20110;-69
2023/12/12 08:23:10;;;;;;;4.13;1.33;;;20.20;54.70;;;;;;4982106;28;20058;-66
2023/12/12 08:25:36;;;;;;;2.78;1.45;;;20.20;54.70;;;;;;4981437;28;20033;-66
2023/12/12 08:28:03;;;;;;;2.53;1.48;;;20.20;54.70;;;;;;4981742;28;20105;-66
2023/12/12 08:30:28;;;;;;;3.25;1.50;;;20.20;54.70;;;;;;4980542;28;20120;-66
2023/12/12 08:32:54;;;;;;;3.65;1.40;;;20.20;54.70;;;;;;4981281;28;20022;-68
2023/12/12 08:35:20;;;;;;;2.50;1.70;;;20.20;54.70;;;;;;4980723;28;20109;-68
2023/12/12 08:37:45;;;;;;;3.20;1.50;;;20.20;54.70;;;;;;4998303;28;20121;-68
2023/12/12 08:40:11;;;;;;;2.40;1.40;;;20.20;54.70;;;;;;4980110;28;20026;-68
2023/12/12 08:42:39;;;;;;;2.65;1.40;;;20.10;54.70;;;;;;4980368;28;20458;-67
2023/12/12 08:45:05;;;;;;;2.67;1.50;;;20.10;54.70;;;;;;4981225;28;20046;-67
2023/12/12 08:47:31;;;;;;;2.60;1.52;;;20.10;54.70;;;;;;4980180;28;20490;-67
2023/12/12 08:49:56;;;;;;;2.30;1.48;;;20.10;54.70;;;;;;4980054;28;20102;-67
2023/12/12 08:52:22;;;;;;;3.65;1.88;;;20.10;54.70;;;;;;4979420;28;20023;-68
2023/12/12 08:54:48;;;;;;;2.22;1.38;;;20.10;54.70;;;;;;4980592;28;20102;-67
2023/12/12 08:57:17;;;;;;;2.63;1.52;;;20.10;54.70;;;;;;4981488;28;20478;-67
2023/12/12 08:59:43;;;;;;;;;;;20.10;54.70;;;;;;4978593;28;20076;-67
2023/12/12 09:02:09;;;;;;;2.65;1.40;;;20.10;54.70;;;;;;4978216;28;19909;-66
2023/12/12 09:04:35;;;;;;;2.88;1.50;;;20.10;54.70;;;;;;4981084;28;20030;-66
2023/12/12 09:07:01;;;;;;;3.55;1.70;;;20.10;55.20;;;;;;4980498;28;20031;-67
2023/12/12 09:09:27;;;;;;;3.45;1.83;;;20.10;54.70;;;;;;4980063;28;20030;-67
2023/12/12 09:11:53;;;;;;;3.35;1.50;;;20.10;54.70;;;;;;4980757;28;20507;-67
2023/12/12 09:14:19;;;;;;;2.45;1.48;;;20.10;54.70;;;;;;4980375;28;20030;-66
2023/12/12 09:16:45;;;;;;;2.53;1.40;;;20.10;54.70;;;;;;4978817;28;20097;-66
2023/12/12 09:19:14;;;;;;;2.47;1.40;;;20.10;54.70;;;;;;4979823;28;20072;-66
2023/12/12 09:21:41;;;;;;;2.90;1.60;;;20.10;54.70;;;;;;4977947;28;20062;-67
2023/12/12 09:24:07;;;;;;;3.47;1.50;;;20.10;54.70;;;;;;4977017;28;20030;-67
2023/12/12 09:26:32;;;;;;;2.13;1.45;;;20.10;54.70;;;;;;4979901;28;20022;-67
2023/12/12 09:28:58;;;;;;;2.75;1.58;;;20.10;54.70;;;;;;4980021;28;20023;-68
2023/12/12 09:31:26;;;;;;;2.90;1.50;;;20.10;54.70;;;;;;4996800;28;20118;-67
2023/12/12 09:33:51;;;;;;;3.08;1.50;;;20.10;54.70;;;;;;4979336;28;20494;-67
2023/12/12 09:36:17;;;;;;;2.30;1.40;;;20.10;54.70;;;;;;4980140;28;20041;-67
2023/12/12 09:38:44;;;;;;;2.22;1.27;;;20.00;54.70;;;;;;4978781;28;20030;-67
2023/12/12 09:41:24;;;;;;;2.58;1.40;;;20.00;54.70;;;;;;4980465;28;20030;-67
2023/12/12 09:43:51;;;;;;;2.50;1.40;;;20.10;54.70;;;;;;4975014;28;20165;-67
2023/12/12 09:46:17;;;;;;;2.78;1.70;;;20.10;54.80;;;;;;4994459;28;20118;-67
2023/12/12 09:48:48;;;;;;;2.25;1.33;;;20.10;54.70;;;;;;4980063;28;20055;-67
2023/12/12 09:51:17;;;;;;;1.95;1.40;;;20.00;54.70;;;;;;4980923;28;20142;-67
2023/12/12 09:53:47;;;;;;;2.70;1.58;;;20.00;54.70;;;;;;4978624;28;20026;-68
2023/12/12 09:56:17;;;;;;;2.83;1.55;;;20.00;55.20;;;;;;4977580;28;20175;-67
2023/12/12 09:58:46;;;;;;;2.40;1.40;;;20.00;54.70;;;;;;4978166;28;20039;-67
2023/12/12 10:01:12;;;;;;;2.47;1.50;;;20.00;54.70;;;;;;4977946;28;20029;-67
2023/12/12 10:03:38;;;;;;;2.53;1.50;;;20.00;54.70;;;;;;4993879;28;20038;-67
2023/12/12 10:06:08;;;;;;;3.40;1.40;;;20.10;54.70;;;;;;4992762;28;20118;-67
2023/12/12 10:08:35;;;;;;;2.00;1.40;;;20.00;54.70;;;;;;4978342;28;20042;-67
2023/12/12 10:11:02;;;;;;;2.35;1.33;;;20.00;54.60;;;;;;4979053;28;20041;-66
2023/12/12 10:13:27;;;;;;;2.58;1.60;;;20.00;54.70;;;;;;4978238;28;20077;-66
2023/12/12 10:15:53;;;;;;;2.28;1.40;;;20.00;54.70;;;;;;4978330;28;20693;-66
2023/12/12 10:18:22;;;;;;;2.47;1.40;;;20.00;54.70;;;;;;4978476;28;20038;-67
2023/12/12 10:20:48;;;;;;;2.23;1.40;;;20.00;54.70;;;;;;4977281;28;20022;-67
2023/12/12 10:23:13;;;;;;;2.90;1.50;;;20.00;54.80;;;;;;4975942;28;20738;-68
2023/12/12 10:25:46;;;;;;;2.15;1.35;;;20.00;55.20;;;;;;4976584;28;20029;-66
2023/12/12 10:28:12;;;;;;;2.92;1.60;;;20.00;54.70;;;;;;4982082;28;20355;-66
2023/12/12 10:30:38;;;;;;;1.98;1.35;;;20.00;54.70;;;;;;4997524;28;20034;-67
2023/12/12 10:33:11;;;;;;;2.40;1.60;;;20.00;54.70;;;;;;4981386;28;20038;-67
2023/12/12 10:35:44;;;;;;;2.60;1.60;;;20.00;54.70;;;;;;4996966;28;20516;-67
2023/12/12 10:38:10;;;;;;;2.20;1.30;;;20.00;54.70;;;;;;4982122;28;20034;-66
2023/12/12 10:40:36;;;;;;;3.35;1.50;;;20.00;54.70;;;;;;4981625;28;20034;-68
2023/12/12 10:43:03;;;;;;;2.20;1.40;;;20.00;54.70;;;;;;4981071;28;20026;-67
2023/12/12 10:45:29;;;;;;;2.90;1.58;;;20.00;54.70;;;;;;4993295;28;20026;-66
2023/12/12 10:47:59;;;;;;;1.70;1.20;;;20.00;54.70;;;;;;4982989;28;20435;-67
2023/12/12 10:50:29;;;;;;;2.50;1.50;;;20.00;54.80;;;;;;4982271;28;20061;-67
2023/12/12 10:52:57;;;;;;;1.80;1.27;;;20.00;54.70;;;;;;4978816;28;20026;-67
2023/12/12 10:55:23;;;;;;;2.10;1.40;;;20.00;54.80;;;;;;4979209;28;20513;-66
2023/12/12 10:57:49;;;;;;;2.28;1.30;;;20.00;54.80;;;;;;4982236;28;20042;-66
2023/12/12 11:00:17;;;;;;;2.10;1.40;;;20.00;54.70;;;;;;4982041;28;20030;-66
2023/12/12 11:02:44;;;;;;;2.33;1.55;;;20.00;54.80;;;;;;4981548;28;20106;-66
2023/12/12 11:05:11;;;;;;;2.22;1.40;;;20.00;54.80;;;;;;4982023;28;20034;-66
2023/12/12 11:07:38;;;;;;;1.98;1.23;;;20.00;54.80;;;;;;4981271;28;20014;-67
2023/12/12 11:10:09;;;;;;;2.40;1.55;;;19.90;54.70;;;;;;4981459;28;20907;-67
2023/12/12 11:12:40;;;;;;;2.67;1.67;;;20.00;54.80;;;;;;4982371;28;20058;-66
2023/12/12 11:15:08;;;;;;;2.53;1.38;;;20.00;55.30;;;;;;4982406;28;20076;-66
2023/12/12 11:17:34;;;;;;;2.40;1.40;;;20.00;54.70;;;;;;4980274;28;20054;-67
2023/12/12 11:20:10;;;;;;;2.30;1.20;;;20.00;55.20;;;;;;4981601;28;20871;-67
2023/12/12 11:22:54;;;;;;;2.08;1.25;;;19.90;54.70;;;;;;4981452;28;20474;-66
2023/12/12 11:25:21;;;;;;;3.05;1.50;;;19.90;54.70;;;;;;4981265;28;20046;-66
2023/12/12 11:27:52;;;;;;;2.30;1.42;;;19.90;54.70;;;;;;4981785;28;20026;-66
2023/12/12 11:30:19;;;;;;;2.40;1.40;;;19.90;54.70;;;;;;4981478;28;20042;-66
2023/12/12 11:32:45;;;;;;;2.38;1.40;;;19.90;54.70;;;;;;4984269;28;20054;-66
2023/12/12 11:35:38;;;;;;;1.90;1.40;;;19.90;54.70;;;;;;4982382;28;20037;-66
2023/12/12 11:38:04;;;;;;;2.40;1.58;;;19.90;54.70;;;;;;4983415;28;20041;-67
2023/12/12 11:40:34;;;;;;;2.10;1.30;;;19.90;54.70;;;;;;4995574;28;20029;-67
2023/12/12 11:43:22;;;;;;;2.10;1.40;;;19.90;54.80;;;;;;4982076;28;20022;-67
2023/12/12 11:45:47;;;;;;;2.50;1.30;;;19.90;54.80;;;;;;4995635;28;20081;-68
2023/12/12 11:48:13;;;;;;;1.88;1.30;;;19.90;54.70;;;;;;4981471;28;20026;-68
2023/12/12 11:50:39;;;;;;;2.83;1.50;;;19.90;54.70;;;;;;4981524;28;20060;-68
2023/12/12 11:53:05;;;;;;;2.78;1.63;;;19.90;54.80;;;;;;4981007;28;20812;-68
2023/12/12 11:55:32;;;;;;;2.22;1.38;;;19.90;54.80;;;;;;4981326;28;20118;-68
2023/12/12 11:58:02;;;;;;;1.70;1.20;;;19.90;54.80;;;;;;4982781;28;20041;-68
2023/12/12 12:00:37;;;;;;;2.58;1.30;;;19.90;54.80;;;;;;4980819;28;20037;-68
2023/12/12 12:03:05;;;;;;;2.80;1.50;;;19.90;54.80;;;;;;4980739;28;20082;-68
2023/12/12 12:05:31;;;;;;;2.08;1.40;;;19.90;54.80;;;;;;4981468;28;20462;-68
2023/12/12 12:07:57;;;;;;;2.33;1.48;;;19.90;54.80;;;;;;4979610;28;20026;-68
2023/12/12 12:10:24;;;;;;;2.10;1.25;;;19.80;54.70;;;;;;4980736;28;20718;-68
2023/12/12 12:12:58;;;;;;;2.00;1.35;;;19.90;54.80;;;;;;4979911;28;20034;-68
2023/12/12 12:15:25;;;;;;;2.05;1.25;;;19.90;54.80;;;;;;4980886;28;20038;-68
2023/12/12 12:17:51;;;;;;;3.30;1.50;;;19.90;55.10;;;;;;4993643;28;20146;-68
2023/12/12 12:20:17;;;;;;;2.33;1.35;;;19.90;54.80;;;;;;4979464;28;20450;-68
2023/12/12 12:22:42;;;;;;;2.97;1.40;;;19.90;54.80;;;;;;4977046;28;20096;-68
2023/12/12 12:25:08;;;;;;;2.08;1.20;;;19.90;54.80;;;;;;4979587;28;20018;-68
2023/12/12 12:27:53;;;;;;;1.73;1.25;;;19.90;54.80;;;;;;4980423;28;20031;-68
2023/12/12 12:30:20;;;;;;;2.35;1.40;;;19.90;54.90;;;;;;4979207;28;20629;-68
2023/12/12 12:33:06;;;;;;;2.00;1.35;;;19.90;54.80;;;;;;4979820;28;20395;-68
2023/12/12 12:35:31;;;;;;;1.95;1.20;;;19.90;55.20;;;;;;4980639;28;20493;-68
2023/12/12 12:37:57;;;;;;;2.08;1.35;;;19.90;54.80;;;;;;4978649;28;20022;-68
2023/12/12 12:40:36;;;;;;;2.42;1.30;;;19.80;54.80;;;;;;4980245;28;20026;-68
2023/12/12 12:43:11;;;;;;;2.00;1.33;;;19.80;54.80;;;;;;4979977;28;20486;-68
2023/12/12 12:45:37;;;;;;;4.40;1.48;;;19.80;55.40;;;;;;4978944;28;20533;-68